Time;durP1;ratioP1;P1;durP2;ratioP2;P2;SDS_P1;SDS_P2;PMS_P1;PMS_P2;Temp;Humidity;BMP_temperature;BMP_pressure;BME280_temperature;BME280_humidity;BME280_pressure;Samples;Min_cycle;Max_cycle;Signal;HPM_P1;HPM_P2
2023/03/14 00:00:30;;;;;;;;;;;11.90;99.90;;;;;;4995817;28;19997;-86
2023/03/14 00:02:55;;;;;;;;;;;11.90;99.90;;;;;;4995183;28;20582;-87
2023/03/14 00:05:21;;;;;;;;;;;11.80;99.90;;;;;;5076261;28;19908;-86
2023/03/14 00:11:47;;;;;;;;;;;11.70;99.90;;;;;;5006034;28;20463;-86
2023/03/14 00:14:15;;;;;;;;;;;11.60;99.90;;;;;;4995443;28;19986;-87
2023/03/14 00:17:07;;;;;;;;;;;11.50;99.90;;;;;;5064862;28;19908;-86
2023/03/14 00:20:03;;;;;;;;;;;11.40;99.90;;;;;;5076255;28;19908;-86
2023/03/14 00:26:05;;;;;;;;;;;;;;;;;;;;;
2023/03/14 00:32:04;;;;;;;;;;;11.60;99.90;;;;;;5077598;28;19923;-87
2023/03/14 00:34:52;;;;;;;;;;;11.70;99.90;;;;;;5074606;28;19912;-87
2023/03/14 00:40:38;;;;;;;;;;;12.00;99.90;;;;;;5069802;28;19923;-88
2023/03/14 00:43:29;;;;;;;;;;;12.10;99.90;;;;;;5058529;28;19916;-87
2023/03/14 00:45:58;;;;;;;;;;;12.20;99.90;;;;;;5074327;28;20372;-86
2023/03/14 00:48:23;;;;;;;;;;;12.20;99.90;;;;;;5076225;28;19943;-85
2023/03/14 00:50:49;;;;;;;;;;;12.30;99.90;;;;;;5058446;28;20287;-85
2023/03/14 00:53:15;;;;;;;;;;;12.00;99.90;;;;;;5057883;28;20284;-85
2023/03/14 00:55:42;;;;;;;;;;;11.30;99.90;;;;;;5056726;28;19977;-85
2023/03/14 00:58:08;;;;;;;;;;;10.70;99.90;;;;;;5074016;28;20283;-85
2023/03/14 01:00:33;;;;;;;;;;;10.40;99.90;;;;;;5073845;28;19909;-85
2023/03/14 01:02:59;;;;;;;;;;;10.10;99.90;;;;;;5056009;28;20494;-87
2023/03/14 01:05:44;;;;;;;;;;;10.00;99.90;;;;;;5056654;28;19913;-87
2023/03/14 01:08:19;;;;;;;;;;;9.80;99.90;;;;;;5073430;28;19944;-85
2023/03/14 01:10:45;;;;;;;;;;;9.90;99.90;;;;;;5056196;28;19912;-86
2023/03/14 01:13:10;;;;;;;;;;;9.90;99.90;;;;;;5055675;28;20007;-87
2023/03/14 01:15:36;;;;;;;;;;;9.90;99.90;;;;;;5055496;28;19924;-86
2023/03/14 01:18:07;;;;;;;;;;;9.80;99.90;;;;;;5055553;28;19908;-86
2023/03/14 01:20:33;;;;;;;;;;;9.70;99.90;;;;;;5073418;28;19909;-87
2023/03/14 01:22:58;;;;;;;;;;;9.70;99.90;;;;;;5055406;28;19919;-86
2023/03/14 01:25:24;;;;;;;;;;;9.70;99.90;;;;;;5056073;28;19912;-86
2023/03/14 01:28:10;;;;;;;;;;;9.70;99.90;;;;;;5056519;28;19909;-86
2023/03/14 01:30:44;;;;;;;;;;;9.60;99.90;;;;;;5057107;28;20330;-87
2023/03/14 01:33:11;;;;;;;;;;;9.60;99.90;;;;;;5057095;28;19909;-85
2023/03/14 01:35:36;;;;;;;;;;;9.60;99.90;;;;;;5041487;28;19917;-84
2023/03/14 01:38:04;;;;;;;;;;;9.60;99.90;;;;;;5053797;28;19909;-86
2023/03/14 01:40:30;;;;;;;;;;;9.60;99.90;;;;;;5055286;28;19909;-85
2023/03/14 01:42:56;;;;;;;;;;;9.70;99.90;;;;;;5053891;28;19908;-86
2023/03/14 01:45:40;;;;;;;;;;;9.70;99.90;;;;;;5036864;28;19943;-85
2023/03/14 01:48:06;;;;;;;;;;;9.70;99.90;;;;;;5053553;28;20372;-86
2023/03/14 01:50:34;;;;;;;;;;;9.70;99.90;;;;;;5054008;28;19908;-86
2023/03/14 01:53:00;;;;;;;;;;;9.80;99.90;;;;;;5053405;28;20269;-85
2023/03/14 01:55:25;;;;;;;;;;;9.80;99.90;;;;;;5054059;28;19913;-86
2023/03/14 01:57:58;;;;;;;;;;;9.80;99.90;;;;;;5053002;28;19909;-85
2023/03/14 02:00:23;;;;;;;;;;;9.80;99.90;;;;;;5036570;28;19909;-85
2023/03/14 02:02:58;;;;;;;;;;;9.70;99.90;;;;;;5053485;28;19916;-85
2023/03/14 02:05:29;;;;;;;;;;;9.70;99.90;;;;;;5036470;28;19909;-85
2023/03/14 02:07:56;;;;;;;;;;;9.80;99.90;;;;;;5036699;28;19916;-85
2023/03/14 02:10:24;;;;;;;;;;;9.70;99.90;;;;;;5037427;28;20067;-85
2023/03/14 02:12:50;;;;;;;;;;;9.70;99.90;;;;;;5036835;28;19908;-85
2023/03/14 02:15:16;;;;;;;;;;;9.70;99.90;;;;;;5036770;28;20371;-86
2023/03/14 02:17:43;;;;;;;;;;;9.70;99.90;;;;;;5036770;28;19916;-85
2023/03/14 02:20:11;;;;;;;;;;;9.70;99.90;;;;;;5037678;28;19909;-87
2023/03/14 02:22:38;;;;;;;;;;;9.70;99.90;;;;;;5053482;28;19916;-86
2023/03/14 02:25:22;;;;;;;;;;;9.70;99.90;;;;;;5036855;28;19940;-85
2023/03/14 02:27:53;;;;;;;;;;;9.80;99.90;;;;;;5053692;28;19909;-87
2023/03/14 02:30:24;;;;;;;;;;;9.70;99.90;;;;;;5053294;28;19909;-86
2023/03/14 02:32:52;;;;;;;;;;;9.80;99.90;;;;;;5036663;28;19924;-86
2023/03/14 02:35:20;;;;;;;;;;;9.80;99.90;;;;;;5035889;28;19935;-87
2023/03/14 02:37:48;;;;;;;;;;;9.90;99.90;;;;;;5035935;28;19909;-87
2023/03/14 02:40:14;;;;;;;;;;;9.90;99.90;;;;;;5036354;28;20435;-86
2023/03/14 02:42:39;;;;;;;;;;;9.90;99.90;;;;;;5052553;28;19971;-86
2023/03/14 02:45:08;;;;;;;;;;;10.00;99.90;;;;;;5052850;28;19931;-86
2023/03/14 02:47:34;;;;;;;;;;;10.00;99.90;;;;;;5054693;28;19916;-87
2023/03/14 02:50:02;;;;;;;;;;;10.00;99.90;;;;;;5036142;28;19909;-85
2023/03/14 02:52:27;;;;;;;;;;;9.90;99.90;;;;;;5036294;28;19909;-86
2023/03/14 02:54:53;;;;;;;;;;;9.90;99.90;;;;;;5053106;28;19916;-85
2023/03/14 02:57:18;;;;;;;;;;;9.80;99.90;;;;;;5052808;28;19915;-85
2023/03/14 02:59:44;;;;;;;;;;;9.80;99.90;;;;;;5053059;28;19956;-86
2023/03/14 03:02:09;;;;;;;;;;;9.90;99.90;;;;;;5053270;28;19909;-86
2023/03/14 03:04:35;;;;;;;;;;;9.90;99.90;;;;;;5053907;28;19909;-86
2023/03/14 03:07:00;;;;;;;;;;;10.00;99.90;;;;;;5055133;28;19909;-87
2023/03/14 03:09:26;;;;;;;;;;;10.00;99.90;;;;;;5055874;28;19908;-86
2023/03/14 03:11:51;;;;;;;;;;;10.10;99.90;;;;;;5058145;28;19908;-84
2023/03/14 03:14:17;;;;;;;;;;;10.20;99.90;;;;;;5056667;28;19912;-86
2023/03/14 03:16:42;;;;;;;;;;;10.20;99.90;;;;;;5056945;28;20392;-88
2023/03/14 03:19:13;;;;;;;;;;;10.30;99.90;;;;;;5057402;28;19909;-87
2023/03/14 03:21:39;;;;;;;;;;;10.30;99.90;;;;;;5056477;28;19995;-87
2023/03/14 03:24:04;;;;;;;;;;;10.40;99.90;;;;;;5039859;28;19971;-87
2023/03/14 03:26:30;;;;;;;;;;;10.40;99.90;;;;;;5055990;28;19909;-86
2023/03/14 03:28:55;;;;;;;;;;;10.50;99.90;;;;;;5056419;28;20364;-86
2023/03/14 03:31:20;;;;;;;;;;;10.50;99.90;;;;;;5056540;28;19909;-87
2023/03/14 03:33:46;;;;;;;;;;;10.40;99.90;;;;;;5058190;28;19916;-86
2023/03/14 03:36:11;;;;;;;;;;;10.40;99.90;;;;;;5055466;28;20280;-85
2023/03/14 03:38:37;;;;;;;;;;;10.30;99.90;;;;;;5055408;28;19909;-86
2023/03/14 03:41:06;;;;;;;;;;;10.30;99.90;;;;;;5055051;28;19915;-85
2023/03/14 03:43:31;;;;;;;;;;;10.30;99.90;;;;;;5039208;28;19909;-86
2023/03/14 03:45:57;;;;;;;;;;;10.40;99.90;;;;;;5055408;28;20000;-85
2023/03/14 03:48:22;;;;;;;;;;;10.40;99.90;;;;;;5055595;28;19970;-85
2023/03/14 03:50:47;;;;;;;;;;;10.40;99.90;;;;;;5056898;28;19909;-86
2023/03/14 03:53:13;;;;;;;;;;;10.40;99.90;;;;;;5054827;28;20206;-85
2023/03/14 03:58:30;;;;;;;;;;;10.40;99.90;;;;;;5049592;28;19909;-86
2023/03/14 04:00:58;;;;;;;;;;;10.30;99.90;;;;;;5055513;28;20340;-86
2023/03/14 04:03:23;;;;;;;;;;;10.20;99.90;;;;;;5057287;28;19915;-86
2023/03/14 04:06:07;;;;;;;;;;;10.20;99.90;;;;;;5055479;28;20419;-86
2023/03/14 04:08:33;;;;;;;;;;;10.20;99.90;;;;;;5055269;28;19931;-85
2023/03/14 04:10:59;;;;;;;;;;;10.10;99.90;;;;;;5054475;28;19909;-85
2023/03/14 04:13:25;;;;;;;;;;;10.10;99.90;;;;;;5038277;28;19916;-85
2023/03/14 04:15:51;;;;;;;;;;;10.10;99.90;;;;;;5078885;23;19924;-85
2023/03/14 04:18:17;;;;;;;;;;;10.00;99.90;;;;;;5077641;28;19927;-85
2023/03/14 04:20:42;;;;;;;;;;;10.00;99.90;;;;;;5076872;28;19908;-84
2023/03/14 04:23:08;;;;;;;;;;;10.00;99.90;;;;;;5077252;28;19912;-85
2023/03/14 04:25:34;;;;;;;;;;;10.00;99.90;;;;;;5074275;28;19996;-86
2023/03/14 04:27:59;;;;;;;;;;;10.00;99.90;;;;;;5056385;28;20379;-85
2023/03/14 04:30:25;;;;;;;;;;;10.10;99.90;;;;;;5056256;28;19970;-84
2023/03/14 04:32:50;;;;;;;;;;;10.10;99.90;;;;;;5055954;28;19915;-85
2023/03/14 04:35:16;;;;;;;;;;;10.10;99.90;;;;;;5056081;28;20341;-85
2023/03/14 04:37:43;;;;;;;;;;;10.10;99.90;;;;;;5056255;28;19908;-84
2023/03/14 04:40:09;;;;;;;;;;;10.10;99.90;;;;;;5056234;28;20290;-85
2023/03/14 04:42:34;;;;;;;;;;;10.10;99.90;;;;;;5056006;28;19934;-85
2023/03/14 04:45:00;;;;;;;;;;;10.10;99.90;;;;;;5056102;28;20287;-85
2023/03/14 04:47:25;;;;;;;;;;;10.00;99.90;;;;;;5056226;28;19918;-84
2023/03/14 04:49:51;;;;;;;;;;;10.00;99.90;;;;;;5074097;28;19908;-86
2023/03/14 04:52:17;;;;;;;;;;;10.00;99.90;;;;;;5055714;28;19917;-85
2023/03/14 04:54:42;;;;;;;;;;;10.10;99.90;;;;;;5055864;28;20433;-84
2023/03/14 04:57:08;;;;;;;;;;;10.10;99.90;;;;;;5073820;28;19912;-85
2023/03/14 04:59:33;;;;;;;;;;;10.10;99.90;;;;;;5055877;28;19915;-85
2023/03/14 05:01:58;;;;;;;;;;;10.10;99.90;;;;;;5055559;28;19934;-85
2023/03/14 05:04:24;;;;;;;;;;;10.10;99.90;;;;;;5057753;28;19958;-85
2023/03/14 05:06:49;;;;;;;;;;;10.00;99.90;;;;;;5057981;28;20390;-86
2023/03/14 05:09:15;;;;;;;;;;;10.00;99.90;;;;;;5057423;28;19931;-84
2023/03/14 05:11:40;;;;;;;;;;;10.00;99.90;;;;;;5075739;28;19923;-84
2023/03/14 05:14:06;;;;;;;;;;;10.00;99.90;;;;;;5057129;28;20264;-85
2023/03/14 05:16:31;;;;;;;;;;;10.00;99.90;;;;;;5057675;28;20417;-85
2023/03/14 05:18:57;;;;;;;;;;;10.00;99.90;;;;;;5057025;28;19927;-84
2023/03/14 05:21:22;;;;;;;;;;;10.00;99.90;;;;;;5056936;28;19909;-84
2023/03/14 05:23:48;;;;;;;;;;;10.10;99.90;;;;;;5056719;28;20002;-84
2023/03/14 05:26:13;;;;;;;;;;;10.10;99.90;;;;;;5057092;28;20379;-85
2023/03/14 05:28:39;;;;;;;;;;;10.00;99.90;;;;;;5056819;28;20003;-84
2023/03/14 05:31:08;;;;;;;;;;;10.10;99.90;;;;;;5055448;28;19909;-83
2023/03/14 05:33:33;;;;;;;;;;;10.10;99.90;;;;;;5056122;28;19966;-83
2023/03/14 05:35:59;;;;;;;;;;;10.10;99.90;;;;;;5055723;28;19994;-84
2023/03/14 05:38:24;;;;;;;;;;;10.10;99.90;;;;;;5073864;28;19908;-83
2023/03/14 05:40:50;;;;;;;;;;;10.10;99.90;;;;;;5055605;28;20326;-84
2023/03/14 05:43:15;;;;;;;;;;;10.10;99.90;;;;;;5055449;28;19908;-83
2023/03/14 05:45:41;;;;;;;;;;;10.10;99.90;;;;;;5073856;28;19908;-83
2023/03/14 05:48:07;;;;;;;;;;;10.10;99.90;;;;;;5055348;28;19919;-84
2023/03/14 05:50:32;;;;;;;;;;;10.00;99.90;;;;;;5055329;28;19986;-86
2023/03/14 05:52:58;;;;;;;;;;;10.10;99.90;;;;;;5055150;28;20424;-85
2023/03/14 05:55:23;;;;;;;;;;;10.10;99.90;;;;;;5055205;28;19919;-84
2023/03/14 05:57:49;;;;;;;;;;;10.10;99.90;;;;;;5054862;28;19952;-84
2023/03/14 06:00:15;;;;;;;;;;;10.00;99.90;;;;;;5072760;28;19915;-85
2023/03/14 06:02:40;;;;;;;;;;;10.00;99.90;;;;;;5054451;28;20389;-85
2023/03/14 06:05:06;;;;;;;;;;;9.90;99.90;;;;;;5054781;28;19912;-84
2023/03/14 06:07:32;;;;;;;;;;;9.90;99.90;;;;;;5054628;28;19909;-86
2023/03/14 06:09:58;;;;;;;;;;;9.90;99.90;;;;;;5054787;28;20339;-85
2023/03/14 06:12:24;;;;;;;;;;;9.90;99.90;;;;;;5054356;28;19969;-85
2023/03/14 06:14:49;;;;;;;;;;;9.90;99.90;;;;;;5054506;28;19924;-85
2023/03/14 06:17:15;;;;;;;;;;;9.90;99.90;;;;;;5054566;28;19909;-85
2023/03/14 06:19:40;;;;;;;;;;;9.90;99.90;;;;;;5054561;28;20386;-84
2023/03/14 06:22:05;;;;;;;;;;;9.90;99.90;;;;;;5054289;28;19923;-85
2023/03/14 06:24:31;;;;;;;;;;;9.90;99.90;;;;;;5072468;28;19951;-84
2023/03/14 06:26:56;;;;;;;;;;;9.90;99.90;;;;;;5054578;28;20378;-84
2023/03/14 06:29:22;;;;;;;;;;;10.00;99.90;;;;;;5072736;28;19915;-84
2023/03/14 06:31:47;;;;;;;;;;;10.10;99.90;;;;;;5054653;28;19915;-83
2023/03/14 06:34:13;;;;;;;;;;;10.10;99.90;;;;;;5054918;28;20363;-84
2023/03/14 06:36:39;;;;;;;;;;;10.20;99.90;;;;;;5072042;28;19912;-84
2023/03/14 06:39:04;;;;;;;;;;;10.30;99.90;;;;;;5071366;28;19916;-83
2023/03/14 06:41:30;;;;;;;;;;;10.30;99.90;;;;;;5071417;28;19915;-83
2023/03/14 06:43:55;;;;;;;;;;;10.40;99.90;;;;;;5075427;28;20330;-84
2023/03/14 06:46:21;;;;;;;;;;;10.60;99.90;;;;;;5077030;28;19915;-83
2023/03/14 06:48:46;;;;;;;;;;;10.70;99.90;;;;;;5075607;28;20373;-84
2023/03/14 06:51:12;;;;;;;;;;;10.80;99.90;;;;;;5076220;28;19909;-84
2023/03/14 06:53:37;;;;;;;;;;;10.90;99.90;;;;;;5076286;28;19908;-83
2023/03/14 06:56:03;;;;;;;;;;;10.90;99.90;;;;;;5076437;28;19913;-84
2023/03/14 06:58:28;;;;;;;;;;;10.90;99.90;;;;;;5076839;28;19931;-83
2023/03/14 07:00:54;;;;;;;;;;;11.00;99.90;;;;;;5075046;28;19909;-83
2023/03/14 07:03:20;;;;;;;;;;;11.10;99.90;;;;;;5075077;28;19931;-83
2023/03/14 07:05:45;;;;;;;;;;;11.10;99.90;;;;;;5075308;28;19908;-83
2023/03/14 07:08:10;;;;;;;;;;;11.10;99.90;;;;;;5075017;28;19909;-84
2023/03/14 07:10:36;;;;;;;;;;;11.10;99.90;;;;;;5074733;28;19978;-85
2023/03/14 07:13:02;;;;;;;;;;;11.20;99.90;;;;;;5074377;28;19915;-85
2023/03/14 07:15:27;;;;;;;;;;;11.30;99.90;;;;;;5074206;28;19916;-85
2023/03/14 07:17:53;;;;;;;;;;;11.40;99.90;;;;;;5074700;28;19940;-84
2023/03/14 07:20:18;;;;;;;;;;;11.50;99.90;;;;;;5074948;28;20359;-83
2023/03/14 07:22:43;;;;;;;;;;;11.60;99.90;;;;;;5074494;28;19909;-83
2023/03/14 07:25:11;;;;;;;;;;;11.70;99.90;;;;;;5074975;28;19999;-83
2023/03/14 07:27:37;;;;;;;;;;;11.80;99.90;;;;;;5075204;28;19912;-84
2023/03/14 07:30:03;;;;;;;;;;;11.80;99.90;;;;;;5074244;28;19916;-85
2023/03/14 07:32:28;;;;;;;;;;;11.80;99.90;;;;;;5073810;28;19909;-85
2023/03/14 07:34:54;;;;;;;;;;;11.80;99.90;;;;;;5073996;28;19916;-84
2023/03/14 07:37:19;;;;;;;;;;;11.80;99.90;;;;;;5073875;28;20287;-85
2023/03/14 07:39:45;;;;;;;;;;;11.70;99.90;;;;;;5073667;28;19909;-84
2023/03/14 07:42:10;;;;;;;;;;;11.70;99.90;;;;;;5073954;28;20383;-84
2023/03/14 07:44:36;;;;;;;;;;;11.70;99.90;;;;;;5076429;28;19912;-81
2023/03/14 07:47:01;;;;;;;;;;;11.60;99.90;;;;;;5074829;28;20441;-81
2023/03/14 07:49:27;;;;;;;;;;;11.70;99.90;;;;;;5073939;28;20011;-81
2023/03/14 07:51:52;;;;;;;;;;;11.60;99.90;;;;;;5074388;28;19915;-81
2023/03/14 07:54:18;;;;;;;;;;;11.70;99.90;;;;;;5074916;28;19977;-82
2023/03/14 07:56:43;;;;;;;;;;;11.70;99.90;;;;;;5076155;28;19915;-83
2023/03/14 07:59:09;;;;;;;;;;;11.70;99.90;;;;;;5074743;28;19951;-83
2023/03/14 08:01:34;;;;;;;;;;;11.80;99.90;;;;;;5074188;28;19908;-82
2023/03/14 08:04:00;;;;;;;;;;;11.70;99.90;;;;;;5073869;28;19922;-83
2023/03/14 08:06:25;;;;;;;;;;;11.90;99.90;;;;;;5078313;28;19914;-85
2023/03/14 08:08:51;;;;;;;;;;;12.00;99.90;;;;;;5074648;28;20364;-84
2023/03/14 08:11:16;;;;;;;;;;;12.00;99.90;;;;;;5073317;28;19913;-85
2023/03/14 08:13:42;;;;;;;;;;;12.10;99.90;;;;;;5072177;28;20256;-85
2023/03/14 08:16:07;;;;;;;;;;;12.20;99.90;;;;;;5053285;28;20301;-84
2023/03/14 08:18:33;;;;;;;;;;;12.30;99.90;;;;;;5054153;28;19909;-84
2023/03/14 08:20:58;;;;;;;;;;;12.40;99.90;;;;;;5054461;28;19963;-84
2023/03/14 08:23:24;;;;;;;;;;;12.40;99.90;;;;;;5053449;28;19916;-85
2023/03/14 08:25:50;;;;;;;;;;;12.40;99.90;;;;;;5052908;28;19909;-85
2023/03/14 08:28:16;;;;;;;;;;;12.20;99.90;;;;;;5052989;28;19909;-86
2023/03/14 08:30:41;;;;;;;;;;;12.10;99.90;;;;;;5052350;28;19944;-85
2023/03/14 08:33:07;;;;;;;;;;;11.90;99.90;;;;;;5054330;28;19912;-83
2023/03/14 08:35:32;;;;;;;;;;;11.90;99.90;;;;;;5053362;28;19913;-83
2023/03/14 08:37:58;;;;;;;;;;;11.70;99.90;;;;;;5053472;28;20360;-83
2023/03/14 08:40:23;;;;;;;;;;;11.60;99.90;;;;;;5052788;28;20338;-84
2023/03/14 08:42:48;;;;;;;;;;;11.60;99.90;;;;;;5052592;28;19913;-83
2023/03/14 08:45:16;;;;;;;;;;;11.60;99.90;;;;;;5053166;28;19909;-84
2023/03/14 08:47:42;;;;;;;;;;;11.60;99.90;;;;;;5054386;28;19916;-85
2023/03/14 08:50:08;;;;;;;;;;;11.60;99.90;;;;;;5053891;28;19909;-85
2023/03/14 08:52:34;;;;;;;;;;;11.40;99.90;;;;;;5052909;28;20257;-84
2023/03/14 08:54:59;;;;;;;;;;;11.40;99.90;;;;;;5052808;28;19912;-83
2023/03/14 08:57:27;;;;;;;;;;;11.40;99.90;;;;;;5054145;28;20451;-83
2023/03/14 08:59:54;;;;;;;;;;;11.40;99.90;;;;;;5052972;28;20395;-85
2023/03/14 09:02:19;;;;;;;;;;;11.40;99.90;;;;;;5052345;28;19947;-85
2023/03/14 09:04:45;;;;;;;;;;;11.40;99.90;;;;;;5052945;28;20315;-85
2023/03/14 09:07:10;;;;;;;;;;;11.30;99.90;;;;;;5052294;28;20303;-85
2023/03/14 09:09:36;;;;;;;;;;;11.30;99.90;;;;;;5052504;28;19916;-84
2023/03/14 09:12:01;;;;;;;;;;;11.30;99.90;;;;;;5063916;28;19991;-83
2023/03/14 09:14:27;;;;;;;;;;;11.20;99.90;;;;;;5072214;28;19927;-84
2023/03/14 09:16:53;;;;;;;;;;;11.30;99.90;;;;;;5073734;28;20364;-84
2023/03/14 09:19:18;;;;;;;;;;;11.40;99.90;;;;;;5072423;28;19962;-83
2023/03/14 09:21:44;;;;;;;;;;;11.50;99.90;;;;;;5073171;28;20356;-84
2023/03/14 09:24:09;;;;;;;;;;;11.50;99.90;;;;;;5072658;28;20326;-84
2023/03/14 09:26:34;;;;;;;;;;;11.50;99.90;;;;;;5072137;28;19908;-82
2023/03/14 09:29:00;;;;;;;;;;;11.20;99.90;;;;;;5072240;28;20427;-81
2023/03/14 09:31:25;;;;;;;;;;;10.50;99.90;;;;;;5071536;28;19916;-83
2023/03/14 09:33:51;;;;;;;;;;;10.10;99.90;;;;;;5076493;28;19988;-85
2023/03/14 09:36:16;;;;;;;;;;;9.80;99.90;;;;;;5086843;28;20013;-85
2023/03/14 09:38:42;;;;;;;;;;;9.70;99.90;;;;;;5086530;28;19908;-84
2023/03/14 09:41:26;;;;;;;;;;;9.60;99.90;;;;;;5090340;28;19983;-85
2023/03/14 09:44:13;;;;;;;;;;;9.40;99.90;;;;;;5066213;28;19908;-85
2023/03/14 09:46:40;;;;;;;;;;;9.30;99.90;;;;;;5066458;28;19967;-86
2023/03/14 09:49:14;;;;;;;;;;;9.30;99.90;;;;;;5065057;28;19913;-85
2023/03/14 09:51:42;;;;;;;;;;;9.30;99.90;;;;;;5061406;28;19909;-85
2023/03/14 09:54:17;;;;;;;;;;;9.20;99.90;;;;;;5061408;28;19927;-86
2023/03/14 09:56:43;;;;;;;;;;;9.20;99.90;;;;;;5061923;28;19912;-86
2023/03/14 09:59:13;;;;;;;;;;;9.30;99.90;;;;;;5078771;28;19916;-86
2023/03/14 10:01:38;;;;;;;;;;;9.50;99.90;;;;;;5080193;28;19923;-86
2023/03/14 10:04:06;;;;;;;;;;;9.40;99.90;;;;;;5078825;28;21235;-86
2023/03/14 10:06:32;;;;;;;;;;;9.40;99.90;;;;;;5061685;28;19993;-86
2023/03/14 10:08:57;;;;;;;;;;;9.30;99.90;;;;;;5079749;28;19909;-85
2023/03/14 10:11:24;;;;;;;;;;;9.20;99.90;;;;;;5078898;28;19916;-86
2023/03/14 10:14:02;;;;;;;;;;;9.30;99.90;;;;;;5063101;28;19908;-85
2023/03/14 10:16:29;;;;;;;;;;;9.10;99.90;;;;;;5079314;28;19935;-85
2023/03/14 10:19:00;;;;;;;;;;;8.90;99.90;;;;;;5059750;28;20284;-86
2023/03/14 10:21:27;;;;;;;;;;;8.80;99.90;;;;;;5059520;28;19912;-85
2023/03/14 10:23:53;;;;;;;;;;;8.70;99.90;;;;;;5060066;28;19975;-85
2023/03/14 10:26:28;;;;;;;;;;;8.70;99.90;;;;;;5076727;28;19924;-84
2023/03/14 10:29:00;;;;;;;;;;;8.70;99.90;;;;;;5059942;28;19943;-84
2023/03/14 10:31:26;;;;;;;;;;;8.60;99.90;;;;;;5061255;28;19912;-85
2023/03/14 10:34:02;;;;;;;;;;;8.50;99.90;;;;;;5077212;28;19915;-85
2023/03/14 10:36:29;;;;;;;;;;;8.50;99.90;;;;;;5059742;28;19913;-84
2023/03/14 10:39:13;;;;;;;;;;;8.60;99.90;;;;;;5060434;28;19908;-85
2023/03/14 10:41:39;;;;;;;;;;;8.70;99.90;;;;;;5076159;28;20275;-85
2023/03/14 10:44:05;;;;;;;;;;;8.80;99.90;;;;;;5074990;28;20007;-85
2023/03/14 10:46:32;;;;;;;;;;;8.80;99.90;;;;;;5059969;28;19915;-84
2023/03/14 10:48:57;;;;;;;;;;;8.70;99.90;;;;;;5077391;28;19918;-85
2023/03/14 10:51:27;;;;;;;;;;;8.80;99.90;;;;;;5073887;28;19908;-83
2023/03/14 10:53:57;;;;;;;;;;;8.80;99.90;;;;;;5056990;28;19931;-84
2023/03/14 10:56:23;;;;;;;;;;;9.00;99.90;;;;;;5057716;28;20367;-84
2023/03/14 10:58:53;;;;;;;;;;;9.20;99.90;;;;;;5071395;28;20368;-84
2023/03/14 11:01:21;;;;;;;;;;;9.20;99.90;;;;;;5068846;28;19935;-84
2023/03/14 11:03:51;;;;;;;;;;;9.20;99.90;;;;;;5065803;28;19916;-86
2023/03/14 11:06:19;;;;;;;;;;;9.10;99.90;;;;;;5062689;28;19913;-84
2023/03/14 11:08:48;;;;;;;;;;;9.10;99.90;;;;;;5061528;28;19909;-84
2023/03/14 11:11:22;;;;;;;;;;;9.10;99.90;;;;;;5044282;28;19912;-85
2023/03/14 11:13:53;;;;;;;;;;;9.20;99.90;;;;;;5062711;28;20291;-85
2023/03/14 11:16:38;;;;;;;;;;;9.20;99.90;;;;;;5062226;28;19913;-84
2023/03/14 11:19:33;;;;;;;;;;;9.50;99.90;;;;;;5041115;28;20465;-85
2023/03/14 11:22:08;;;;;;;;;;;10.30;99.90;;;;;;5043005;28;19931;-84
2023/03/14 11:24:52;;;;;;;;;;;10.50;99.90;;;;;;5040371;28;19909;-85
2023/03/14 11:27:21;;;;;;;;;;;10.50;99.90;;;;;;5042112;28;19916;-86
2023/03/14 11:30:13;;;;;;;;;;;10.40;99.90;;;;;;5042637;28;19916;-85
2023/03/14 11:32:43;;;;;;;;;;;9.40;99.90;;;;;;5043987;28;20000;-84
2023/03/14 11:35:15;;;;;;;;;;;8.40;99.90;;;;;;5041887;28;19945;-84
2023/03/14 11:37:45;;;;;;;;;;;8.00;99.90;;;;;;5056727;28;19940;-84
2023/03/14 11:40:14;;;;;;;;;;;7.90;99.90;;;;;;5037425;28;19909;-83
2023/03/14 11:42:42;;;;;;;;;;;7.90;99.90;;;;;;5053505;28;19912;-83
2023/03/14 11:45:16;;;;;;;;;;;7.90;99.90;;;;;;5054653;28;19912;-83
2023/03/14 11:47:42;;;;;;;;;;;7.90;99.90;;;;;;5037384;28;19908;-83
2023/03/14 11:50:17;;;;;;;;;;;7.90;99.90;;;;;;5054910;28;20291;-84
2023/03/14 11:52:47;;;;;;;;;;;7.90;99.90;;;;;;5054465;28;20003;-85
2023/03/14 11:55:18;;;;;;;;;;;7.90;99.90;;;;;;5037281;28;20298;-83
2023/03/14 11:57:45;;;;;;;;;;;7.90;99.90;;;;;;5037031;28;19974;-83
2023/03/14 12:00:19;;;;;;;;;;;7.90;99.90;;;;;;5037110;28;19908;-83
2023/03/14 12:02:53;;;;;;;;;;;8.00;99.90;;;;;;5054280;28;19909;-85
2023/03/14 12:05:27;;;;;;;;;;;8.10;99.90;;;;;;5036985;28;19909;-85
2023/03/14 12:07:53;;;;;;;;;;;8.20;99.90;;;;;;5053465;28;20335;-85
2023/03/14 12:10:18;;;;;;;;;;;8.30;99.90;;;;;;5053379;28;19959;-84
2023/03/14 12:12:44;;;;;;;;;;;8.50;99.90;;;;;;5053972;28;19915;-83
2023/03/14 12:15:17;;;;;;;;;;;8.60;99.90;;;;;;5036671;28;19920;-85
2023/03/14 12:17:43;;;;;;;;;;;8.70;99.90;;;;;;5036935;28;19958;-85
2023/03/14 12:20:17;;;;;;;;;;;8.50;99.90;;;;;;5053547;28;19913;-86
2023/03/14 12:22:44;;;;;;;;;;;8.50;99.90;;;;;;5036543;28;20004;-85
2023/03/14 12:25:16;;;;;;;;;;;8.50;99.90;;;;;;5036906;28;19908;-85
2023/03/14 12:27:46;;;;;;;;;;;8.50;99.90;;;;;;5053097;28;19967;-84
2023/03/14 12:30:25;;;;;;;;;;;8.60;99.90;;;;;;5036741;28;20782;-85
2023/03/14 12:33:20;;;;;;;;;;;8.60;99.90;;;;;;5036191;28;19913;-85
2023/03/14 12:36:12;;;;;;;;;;;8.50;99.90;;;;;;5023011;28;20106;-85
2023/03/14 12:38:40;;;;;;;;;;;8.60;99.90;;;;;;5032812;28;19909;-84
2023/03/14 12:41:13;;;;;;;;;;;8.40;99.90;;;;;;5053004;28;19912;-85
2023/03/14 12:43:39;;;;;;;;;;;8.20;99.90;;;;;;5060922;28;19924;-86
2023/03/14 12:46:14;;;;;;;;;;;8.20;99.90;;;;;;5054361;28;19909;-84
2023/03/14 12:48:40;;;;;;;;;;;8.00;99.90;;;;;;5038523;28;19971;-85
2023/03/14 12:51:12;;;;;;;;;;;8.00;99.90;;;;;;5039137;28;19913;-84
2023/03/14 12:53:38;;;;;;;;;;;7.90;99.90;;;;;;5038956;28;19909;-85
2023/03/14 12:56:09;;;;;;;;;;;7.80;99.90;;;;;;5055023;28;20011;-84
2023/03/14 12:58:38;;;;;;;;;;;7.80;99.90;;;;;;5056158;28;19942;-85
2023/03/14 13:01:04;;;;;;;;;;;7.80;99.90;;;;;;5035796;28;19908;-85
2023/03/14 13:03:43;;;;;;;;;;;7.90;99.90;;;;;;5037442;28;19916;-84
2023/03/14 13:06:10;;;;;;;;;;;8.00;99.90;;;;;;5038938;28;19909;-86
2023/03/14 13:08:35;;;;;;;;;;;8.20;99.90;;;;;;5038395;28;19956;-84
2023/03/14 13:11:02;;;;;;;;;;;8.50;99.90;;;;;;5053019;28;20391;-86
2023/03/14 13:13:28;;;;;;;;;;;8.80;99.90;;;;;;5038502;28;20372;-85
2023/03/14 13:15:57;;;;;;;;;;;10.00;99.90;;;;;;5056009;28;19966;-85
2023/03/14 13:18:40;;;;;;;;;;;10.30;99.90;;;;;;5056328;28;19909;-85
2023/03/14 13:21:09;;;;;;;;;;;10.00;99.90;;;;;;5037167;28;20495;-86
2023/03/14 13:23:36;;;;;;;;;;;9.80;99.90;;;;;;5054875;28;19931;-84
2023/03/14 13:26:02;;;;;;;;;;;9.60;99.90;;;;;;5036877;28;20003;-84
2023/03/14 13:28:29;;;;;;;;;;;8.80;99.90;;;;;;5037815;28;20431;-85
2023/03/14 13:30:55;;;;;;;;;;;8.30;99.90;;;;;;5037963;28;19909;-84
2023/03/14 13:33:22;;;;;;;;;;;8.00;99.90;;;;;;5037239;28;20024;-83
2023/03/14 13:35:49;;;;;;;;;;;7.80;99.90;;;;;;5037569;28;19913;-82
2023/03/14 13:38:16;;;;;;;;;;;7.60;99.90;;;;;;5036804;28;19909;-83
2023/03/14 13:40:43;;;;;;;;;;;7.50;99.90;;;;;;5035704;28;19909;-82
2023/03/14 13:43:12;;;;;;;;;;;7.30;99.90;;;;;;5053097;28;19916;-82
2023/03/14 13:45:44;;;;;;;;;;;7.40;99.90;;;;;;5052059;28;19959;-82
2023/03/14 13:48:12;;;;;;;;;;;7.80;99.90;;;;;;5035509;28;19909;-81
2023/03/14 13:50:37;;;;;;;;;;;7.90;99.90;;;;;;5035778;28;19916;-82
2023/03/14 13:53:03;;;;;;;;;;;8.10;99.90;;;;;;5053243;28;19908;-84
2023/03/14 13:55:29;;;;;;;;;;;8.20;99.90;;;;;;5053305;28;20284;-84
2023/03/14 13:57:55;;;;;;;;;;;8.40;99.90;;;;;;5037136;28;19909;-83
2023/03/14 14:00:26;;;;;;;;;;;8.70;99.90;;;;;;5053345;28;20387;-83
2023/03/14 14:02:52;;;;;;;;;;;8.80;99.90;;;;;;5036206;28;20279;-83
2023/03/14 14:05:17;;;;;;;;;;;9.20;99.90;;;;;;5035572;28;20007;-83
2023/03/14 14:07:43;;;;;;;;;;;9.40;99.90;;;;;;5052214;28;20288;-81
2023/03/14 14:10:11;;;;;;;;;;;9.30;99.90;;;;;;5054219;28;19909;-83
2023/03/14 14:12:58;;;;;;;;;;;9.40;99.90;;;;;;5035084;28;20335;-83
2023/03/14 14:15:26;;;;;;;;;;;9.50;99.90;;;;;;5035223;28;19946;-82
2023/03/14 14:17:54;;;;;;;;;;;9.30;99.90;;;;;;5035147;28;19909;-82
2023/03/14 14:20:22;;;;;;;;;;;9.20;99.90;;;;;;5035287;28;20361;-83
2023/03/14 14:22:49;;;;;;;;;;;9.10;99.90;;;;;;5052683;28;19915;-83
2023/03/14 14:25:15;;;;;;;;;;;9.30;99.90;;;;;;5035091;28;19925;-82
2023/03/14 14:27:46;;;;;;;;;;;9.30;99.90;;;;;;5035205;28;19909;-82
2023/03/14 14:30:17;;;;;;;;;;;9.30;99.90;;;;;;5052927;28;20281;-83
2023/03/14 14:32:43;;;;;;;;;;;9.30;99.90;;;;;;5051742;28;20327;-83
2023/03/14 14:35:10;;;;;;;;;;;9.40;99.90;;;;;;5052045;28;19965;-82
2023/03/14 14:37:43;;;;;;;;;;;9.40;99.90;;;;;;5034946;28;19913;-83
2023/03/14 14:40:10;;;;;;;;;;;9.30;99.90;;;;;;5054633;28;19934;-82
2023/03/14 14:42:39;;;;;;;;;;;9.40;99.90;;;;;;5072743;28;20008;-83
2023/03/14 14:45:06;;;;;;;;;;;9.40;99.90;;;;;;5056286;28;19909;-83